Time,TemperatureF,DewpointF,PressureIn,WindDirection,WindDirectionDegrees,WindSpeedMPH,WindSpeedGustMPH,Humidity,HourlyPrecipIn,Conditions,Clouds,dailyrainin,SoftwareType,DateUTC
2013-05-25 00:02:00,51.0,47.0,-100.00,WSW,255,0.0,0.0,89,-99.99,,,-99.99,,2013-05-25 05:02:00,
2013-05-25 00:12:00,51.0,47.0,-100.00,WSW,255,0.0,0.0,89,-99.99,,,-99.99,,2013-05-25 05:12:00,
2013-05-25 00:22:00,51.0,47.0,-100.00,WSW,255,0.0,0.0,89,-99.99,,,-99.99,,2013-05-25 05:22:00,
2013-05-25 00:32:00,50.0,47.0,-100.00,South,170,0.0,0.0,91,-99.99,,,-99.99,,2013-05-25 05:32:00,
2013-05-25 00:43:00,49.0,47.0,-100.00,North,350,0.0,0.0,92,-99.99,,,-99.99,,2013-05-25 05:43:00,
2013-05-25 00:52:00,49.0,47.0,-100.00,North,350,0.0,0.0,92,-99.99,,,-99.99,,2013-05-25 05:52:00,
2013-05-25 01:02:00,48.0,46.0,-100.00,ENE,75,1.0,2.0,93,-99.99,,,-99.99,,2013-05-25 06:02:00,
2013-05-25 01:12:00,48.0,47.0,-100.00,ENE,75,0.0,0.0,94,-99.99,,,-99.99,,2013-05-25 06:12:00,
2013-05-25 01:21:00,48.0,47.0,-100.00,ENE,75,0.0,0.0,94,-99.99,,,-99.99,,2013-05-25 06:21:00,
2013-05-25 01:32:00,48.0,47.0,-100.00,ENE,75,0.0,0.0,94,-99.99,,,-99.99,,2013-05-25 06:32:00,
2013-05-25 01:42:00,48.0,47.0,-100.00,NNW,340,0.0,0.0,95,-99.99,,,-99.99,,2013-05-25 06:42:00,
2013-05-25 01:52:00,48.0,47.0,-100.00,NNW,340,0.0,0.0,95,-99.99,,,-99.99,,2013-05-25 06:52:00,
2013-05-25 02:01:00,48.0,46.0,-100.00,North,355,0.0,0.0,95,-99.99,,,-99.99,,2013-05-25 07:01:00,
2013-05-25 02:11:00,48.0,47.0,-100.00,SE,140,0.0,0.0,96,-99.99,,,-99.99,,2013-05-25 07:11:00,
2013-05-25 02:21:00,48.0,47.0,-100.00,SE,140,0.0,0.0,96,-99.99,,,-99.99,,2013-05-25 07:21:00,
2013-05-25 02:32:00,47.0,46.0,-100.00,ESE,110,1.0,1.0,96,-99.99,,,-99.99,,2013-05-25 07:32:00,
2013-05-25 02:42:00,48.0,46.0,-100.00,SSE,155,0.0,0.0,96,-99.99,,,-99.99,,2013-05-25 07:42:00,
2013-05-25 02:52:00,48.0,46.0,-100.00,SSE,155,0.0,0.0,96,-99.99,,,-99.99,,2013-05-25 07:52:00,
2013-05-25 03:02:00,48.0,47.0,-100.00,North,10,0.0,0.0,97,-99.99,,,-99.99,,2013-05-25 08:02:00,
2013-05-25 03:11:00,47.0,46.0,-100.00,NNW,330,0.0,0.0,97,-99.99,,,-99.99,,2013-05-25 08:11:00,
2013-05-25 03:22:00,47.0,46.0,-100.00,NNW,330,0.0,0.0,97,-99.99,,,-99.99,,2013-05-25 08:22:00,
2013-05-25 03:32:00,46.0,45.0,-100.00,NE,50,1.0,1.0,97,-99.99,,,-99.99,,2013-05-25 08:32:00,
2013-05-25 03:42:00,47.0,46.0,-100.00,NW,325,1.0,2.0,97,-99.99,,,-99.99,,2013-05-25 08:42:00,
2013-05-25 03:52:00,47.0,46.0,-100.00,NW,325,1.0,2.0,97,-99.99,,,-99.99,,2013-05-25 08:52:00,
2013-05-25 04:02:00,46.0,46.0,-100.00,SSE,155,2.0,2.0,97,-99.99,,,-99.99,,2013-05-25 09:02:00,
2013-05-25 04:11:00,47.0,46.0,-100.00,South,180,2.0,3.0,97,-99.99,,,-99.99,,2013-05-25 09:11:00,
2013-05-25 04:21:00,47.0,46.0,-100.00,South,180,2.0,3.0,97,-99.99,,,-99.99,,2013-05-25 09:21:00,
2013-05-25 04:33:00,47.0,46.0,-100.00,South,185,0.0,0.0,97,-99.99,,,-99.99,,2013-05-25 09:33:00,
2013-05-25 04:43:00,47.0,46.0,-100.00,South,175,0.0,0.0,97,-99.99,,,-99.99,,2013-05-25 09:43:00,
2013-05-25 04:53:00,47.0,46.0,-100.00,South,175,0.0,0.0,97,-99.99,,,-99.99,,2013-05-25 09:53:00,
2013-05-25 05:02:00,46.0,46.0,-100.00,SSE,165,0.0,1.0,97,-99.99,,,-99.99,,2013-05-25 10:02:00,
2013-05-25 05:12:00,48.0,47.0,-100.00,South,170,0.0,1.0,97,-99.99,,,-99.99,,2013-05-25 10:12:00,
2013-05-25 05:22:00,48.0,47.0,-100.00,South,170,0.0,1.0,97,-99.99,,,-99.99,,2013-05-25 10:22:00,
2013-05-25 05:33:00,48.0,47.0,-100.00,North,350,3.0,3.0,97,-99.99,,,-99.99,,2013-05-25 10:33:00,
2013-05-25 05:42:00,48.0,48.0,-100.00,NE,40,0.0,0.0,97,-99.99,,,-99.99,,2013-05-25 10:42:00,
2013-05-25 05:52:00,48.0,48.0,-100.00,NE,40,0.0,0.0,97,-99.99,,,-99.99,,2013-05-25 10:52:00,
2013-05-25 06:02:00,49.0,48.0,-100.00,North,355,3.0,4.0,97,-99.99,,,-99.99,,2013-05-25 11:02:00,
2013-05-25 06:12:00,49.0,48.0,-100.00,North,350,3.0,4.0,97,-99.99,,,-99.99,,2013-05-25 11:12:00,
2013-05-25 06:22:00,49.0,48.0,-100.00,North,350,3.0,4.0,97,-99.99,,,-99.99,,2013-05-25 11:22:00,
2013-05-25 06:32:00,49.0,48.0,-100.00,NNW,335,1.0,3.0,97,-99.99,,,-99.99,,2013-05-25 11:32:00,
2013-05-25 06:42:00,50.0,49.0,-100.00,NW,325,0.0,0.0,97,-99.99,,,-99.99,,2013-05-25 11:42:00,
2013-05-25 06:52:00,50.0,49.0,-100.00,NW,325,0.0,0.0,97,-99.99,,,-99.99,,2013-05-25 11:52:00,
2013-05-25 07:01:00,50.0,49.0,-100.00,North,350,1.0,2.0,97,-99.99,,,-99.99,,2013-05-25 12:01:00,
2013-05-25 07:12:00,50.0,49.0,-100.00,North,0,1.0,3.0,97,-99.99,,,-99.99,,2013-05-25 12:12:00,
2013-05-25 07:22:00,50.0,49.0,-100.00,North,0,1.0,3.0,97,-99.99,,,-99.99,,2013-05-25 12:22:00,
2013-05-25 07:32:00,51.0,50.0,-100.00,NW,310,0.0,0.0,97,-99.99,,,-99.99,,2013-05-25 12:32:00,
2013-05-25 07:42:00,52.0,51.0,-100.00,NNE,20,0.0,1.0,97,-99.99,,,-99.99,,2013-05-25 12:42:00,
2013-05-25 07:52:00,52.0,51.0,-100.00,NNE,20,0.0,1.0,97,-99.99,,,-99.99,,2013-05-25 12:52:00,
2013-05-25 08:02:00,53.0,52.0,-100.00,North,0,0.0,2.0,97,-99.99,,,-99.99,,2013-05-25 13:02:00,
2013-05-25 08:11:00,54.0,53.0,-100.00,WSW,240,0.0,0.0,97,-99.99,,,-99.99,,2013-05-25 13:11:00,
2013-05-25 08:22:00,54.0,53.0,-100.00,WSW,240,0.0,0.0,97,-99.99,,,-99.99,,2013-05-25 13:22:00,
2013-05-25 08:32:00,54.0,53.0,-100.00,NNE,30,1.0,2.0,95,-99.99,,,-99.99,,2013-05-25 13:32:00,
2013-05-25 08:42:00,55.0,53.0,-100.00,NE,35,4.0,6.0,93,-99.99,,,-99.99,,2013-05-25 13:42:00,
2013-05-25 08:52:00,55.0,53.0,-100.00,NE,35,4.0,6.0,93,-99.99,,,-99.99,,2013-05-25 13:52:00,
2013-05-25 09:02:00,55.0,52.0,-100.00,ENE,75,2.0,4.0,89,-99.99,,,-99.99,,2013-05-25 14:02:00,
2013-05-25 09:11:00,56.0,52.0,-100.00,North,0,0.0,1.0,85,-99.99,,,-99.99,,2013-05-25 14:11:00,
2013-05-25 09:22:00,56.0,52.0,-100.00,North,0,0.0,1.0,85,-99.99,,,-99.99,,2013-05-25 14:22:00,
2013-05-25 09:32:00,57.0,51.0,-100.00,East,85,4.0,4.0,81,-99.99,,,-99.99,,2013-05-25 14:32:00,
2013-05-25 09:42:00,57.0,49.0,-100.00,East,100,8.0,9.0,74,-99.99,,,-99.99,,2013-05-25 14:42:00,
2013-05-25 09:52:00,57.0,49.0,-100.00,East,100,8.0,9.0,74,-99.99,,,-99.99,,2013-05-25 14:52:00,
2013-05-25 10:01:00,58.0,49.0,-100.00,East,100,4.0,4.0,74,-99.99,,,-99.99,,2013-05-25 15:01:00,
2013-05-25 10:11:00,59.0,50.0,-100.00,ENE,75,2.0,4.0,72,-99.99,,,-99.99,,2013-05-25 15:11:00,
2013-05-25 10:22:00,59.0,50.0,-100.00,ENE,75,2.0,4.0,72,-99.99,,,-99.99,,2013-05-25 15:22:00,
2013-05-25 10:33:00,60.0,49.0,-100.00,East,95,6.0,9.0,67,-99.99,,,-99.99,,2013-05-25 15:33:00,
2013-05-25 10:43:00,62.0,48.0,-100.00,East,85,6.0,9.0,60,-99.99,,,-99.99,,2013-05-25 15:43:00,
2013-05-25 10:53:00,62.0,48.0,-100.00,East,85,6.0,9.0,60,-99.99,,,-99.99,,2013-05-25 15:53:00,
2013-05-25 11:03:00,63.0,47.0,-100.00,ESE,110,6.0,6.0,56,-99.99,,,-99.99,,2013-05-25 16:03:00,
2013-05-25 11:12:00,63.0,46.0,-100.00,ESE,105,4.0,6.0,53,-99.99,,,-99.99,,2013-05-25 16:12:00,
2013-05-25 11:23:00,63.0,46.0,-100.00,ESE,105,4.0,6.0,53,-99.99,,,-99.99,,2013-05-25 16:23:00,
2013-05-25 11:32:00,64.0,46.0,-100.00,East,85,6.0,8.0,52,-99.99,,,-99.99,,2013-05-25 16:32:00,
2013-05-25 11:42:00,63.0,45.0,-100.00,ESE,115,6.0,8.0,51,-99.99,,,-99.99,,2013-05-25 16:42:00,
2013-05-25 11:52:00,63.0,45.0,-100.00,ESE,115,6.0,8.0,51,-99.99,,,-99.99,,2013-05-25 16:52:00,
2013-05-25 12:02:00,63.0,43.0,-100.00,SE,130,4.0,6.0,48,-99.99,,,-99.99,,2013-05-25 17:02:00,
2013-05-25 12:11:00,63.0,43.0,-100.00,ESE,105,4.0,6.0,48,-99.99,,,-99.99,,2013-05-25 17:11:00,
2013-05-25 12:22:00,63.0,43.0,-100.00,ESE,105,4.0,6.0,48,-99.99,,,-99.99,,2013-05-25 17:22:00,
2013-05-25 12:32:00,64.0,43.0,-100.00,SE,125,4.0,4.0,47,-99.99,,,-99.99,,2013-05-25 17:32:00,
2013-05-25 12:42:00,64.0,43.0,-100.00,East,100,3.0,4.0,47,-99.99,,,-99.99,,2013-05-25 17:42:00,
2013-05-25 12:52:00,64.0,43.0,-100.00,East,100,3.0,4.0,47,-99.99,,,-99.99,,2013-05-25 17:52:00,
2013-05-25 13:01:00,64.0,44.0,-100.00,East,95,1.0,2.0,48,-99.99,,,-99.99,,2013-05-25 18:01:00,
2013-05-25 13:11:00,64.0,45.0,-100.00,East,80,6.0,8.0,49,-99.99,,,-99.99,,2013-05-25 18:11:00,
2013-05-25 13:21:00,64.0,45.0,-100.00,East,80,6.0,8.0,49,-99.99,,,-99.99,,2013-05-25 18:21:00,
2013-05-25 13:32:00,65.0,46.0,-100.00,East,80,4.0,6.0,49,-99.99,,,-99.99,,2013-05-25 18:32:00,
2013-05-25 13:42:00,65.0,44.0,-100.00,ENE,70,6.0,9.0,47,-99.99,,,-99.99,,2013-05-25 18:42:00,
2013-05-25 13:52:00,65.0,44.0,-100.00,ENE,70,6.0,9.0,47,-99.99,,,-99.99,,2013-05-25 18:52:00,
2013-05-25 14:01:00,65.0,43.0,-100.00,East,80,6.0,6.0,45,-99.99,,,-99.99,,2013-05-25 19:01:00,
2013-05-25 14:11:00,65.0,44.0,-100.00,East,90,6.0,6.0,47,-99.99,,,-99.99,,2013-05-25 19:11:00,
2013-05-25 14:22:00,65.0,44.0,-100.00,East,90,6.0,6.0,47,-99.99,,,-99.99,,2013-05-25 19:22:00,
2013-05-25 14:32:00,65.0,45.0,-100.00,ENE,65,1.0,3.0,48,-99.99,,,-99.99,,2013-05-25 19:32:00,
2013-05-25 14:42:00,64.0,49.0,-100.00,ENE,65,3.0,4.0,58,-99.99,,,-99.99,,2013-05-25 19:42:00,
2013-05-25 14:52:00,64.0,49.0,-100.00,ENE,65,3.0,4.0,58,-99.99,,,-99.99,,2013-05-25 19:52:00,
2013-05-25 15:02:00,63.0,50.0,-100.00,NNE,30,1.0,3.0,64,-99.99,,,-99.99,,2013-05-25 20:02:00,
2013-05-25 15:11:00,63.0,52.0,-100.00,North,5,3.0,6.0,68,-99.99,,,-99.99,,2013-05-25 20:11:00,
2013-05-25 15:22:00,63.0,52.0,-100.00,North,5,3.0,6.0,68,-99.99,,,-99.99,,2013-05-25 20:22:00,
2013-05-25 15:32:00,62.0,52.0,-100.00,East,80,8.0,9.0,70,-99.99,,,-99.99,,2013-05-25 20:32:00,
2013-05-25 15:42:00,62.0,53.0,-100.00,East,95,9.0,10.0,73,-99.99,,,-99.99,,2013-05-25 20:42:00,
2013-05-25 15:52:00,62.0,53.0,-100.00,East,95,9.0,10.0,73,-99.99,,,-99.99,,2013-05-25 20:52:00,
2013-05-25 16:02:00,62.0,52.0,-100.00,East,90,9.0,9.0,71,-99.99,,,-99.99,,2013-05-25 21:02:00,
2013-05-25 16:11:00,63.0,51.0,-100.00,SE,125,10.0,12.0,65,-99.99,,,-99.99,,2013-05-25 21:11:00,
2013-05-25 16:21:00,63.0,51.0,-100.00,SE,125,10.0,12.0,65,-99.99,,,-99.99,,2013-05-25 21:21:00,
2013-05-25 16:33:00,64.0,51.0,-100.00,ESE,105,12.0,14.0,64,-99.99,,,-99.99,,2013-05-25 21:33:00,
2013-05-25 16:43:00,66.0,52.0,-100.00,ESE,110,10.0,14.0,62,-99.99,,,-99.99,,2013-05-25 21:43:00,
2013-05-25 16:53:00,66.0,52.0,-100.00,ESE,110,10.0,14.0,62,-99.99,,,-99.99,,2013-05-25 21:53:00,
2013-05-25 17:03:00,66.0,50.0,-100.00,SE,135,12.0,16.0,57,-99.99,,,-99.99,,2013-05-25 22:03:00,
2013-05-25 17:12:00,66.0,49.0,-100.00,ESE,115,8.0,10.0,54,-99.99,,,-99.99,,2013-05-25 22:12:00,
2013-05-25 17:23:00,66.0,49.0,-100.00,ESE,115,8.0,10.0,54,-99.99,,,-99.99,,2013-05-25 22:23:00,
2013-05-25 17:32:00,67.0,48.0,-100.00,ESE,120,6.0,10.0,52,-99.99,,,-99.99,,2013-05-25 22:32:00,
2013-05-25 17:42:00,67.0,49.0,-100.00,SE,135,4.0,6.0,52,-99.99,,,-99.99,,2013-05-25 22:42:00,
2013-05-25 17:52:00,67.0,49.0,-100.00,SE,135,4.0,6.0,52,-99.99,,,-99.99,,2013-05-25 22:52:00,
2013-05-25 18:02:00,67.0,48.0,-100.00,SE,125,9.0,12.0,51,-99.99,,,-99.99,,2013-05-25 23:02:00,
2013-05-25 18:12:00,67.0,48.0,-100.00,ESE,115,6.0,8.0,51,-99.99,,,-99.99,,2013-05-25 23:12:00,
2013-05-25 18:22:00,67.0,48.0,-100.00,ESE,115,6.0,8.0,51,-99.99,,,-99.99,,2013-05-25 23:22:00,
2013-05-25 18:32:00,67.0,48.0,-100.00,SE,140,6.0,6.0,51,-99.99,,,-99.99,,2013-05-25 23:32:00,
2013-05-25 18:42:00,67.0,49.0,-100.00,East,90,3.0,4.0,51,-99.99,,,-99.99,,2013-05-25 23:42:00,
2013-05-25 18:52:00,67.0,49.0,-100.00,East,90,3.0,4.0,51,-99.99,,,-99.99,,2013-05-25 23:52:00,
2013-05-25 19:01:00,68.0,49.0,-100.00,NE,35,3.0,3.0,52,-99.99,,,-99.99,,2013-05-26 00:01:00,
2013-05-25 19:11:00,67.0,50.0,-100.00,ENE,75,2.0,3.0,55,-99.99,,,-99.99,,2013-05-26 00:11:00,
2013-05-25 19:22:00,67.0,50.0,-100.00,ENE,75,2.0,3.0,55,-99.99,,,-99.99,,2013-05-26 00:22:00,
2013-05-25 19:31:00,67.0,50.0,-100.00,ENE,75,2.0,3.0,55,-99.99,,,-99.99,,2013-05-26 00:31:00,
2013-05-25 19:42:00,65.0,51.0,-100.00,ENE,65,3.0,6.0,60,-99.99,,,-99.99,,2013-05-26 00:42:00,
2013-05-25 19:53:00,65.0,51.0,-100.00,ENE,65,3.0,6.0,60,-99.99,,,-99.99,,2013-05-26 00:53:00,
2013-05-25 20:01:00,64.0,51.0,-100.00,ENE,60,3.0,3.0,63,-99.99,,,-99.99,,2013-05-26 01:01:00,
2013-05-25 20:11:00,63.0,52.0,-100.00,ENE,65,4.0,9.0,66,-99.99,,,-99.99,,2013-05-26 01:11:00,
2013-05-25 20:21:00,63.0,52.0,-100.00,ENE,65,4.0,9.0,66,-99.99,,,-99.99,,2013-05-26 01:21:00,
2013-05-25 20:32:00,62.0,51.0,-100.00,ENE,60,4.0,9.0,67,-99.99,,,-99.99,,2013-05-26 01:32:00,
2013-05-25 20:42:00,62.0,51.0,-100.00,ENE,65,6.0,10.0,67,-99.99,,,-99.99,,2013-05-26 01:42:00,
2013-05-25 20:53:00,62.0,51.0,-100.00,ENE,65,6.0,10.0,67,-99.99,,,-99.99,,2013-05-26 01:53:00,
2013-05-25 21:02:00,62.0,50.0,-100.00,NE,55,3.0,6.0,67,-99.99,,,-99.99,,2013-05-26 02:02:00,
2013-05-25 21:11:00,61.0,50.0,-100.00,ENE,65,8.0,14.0,68,-99.99,,,-99.99,,2013-05-26 02:11:00,
2013-05-25 21:21:00,61.0,50.0,-100.00,ENE,65,8.0,14.0,68,-99.99,,,-99.99,,2013-05-26 02:21:00,
2013-05-25 21:32:00,59.0,48.0,-100.00,NE,55,6.0,6.0,67,-99.99,,,-99.99,,2013-05-26 02:32:00,
2013-05-25 21:42:00,58.0,47.0,-100.00,NE,55,6.0,9.0,66,-99.99,,,-99.99,,2013-05-26 02:42:00,
2013-05-25 21:52:00,58.0,47.0,-100.00,NE,55,6.0,9.0,66,-99.99,,,-99.99,,2013-05-26 02:52:00,
2013-05-25 22:01:00,58.0,46.0,-100.00,ENE,60,6.0,11.0,65,-99.99,,,-99.99,,2013-05-26 03:01:00,
2013-05-25 22:11:00,58.0,46.0,-100.00,ENE,65,9.0,11.0,65,-99.99,,,-99.99,,2013-05-26 03:11:00,
2013-05-25 22:21:00,58.0,46.0,-100.00,ENE,65,9.0,11.0,65,-99.99,,,-99.99,,2013-05-26 03:21:00,
2013-05-25 22:33:00,58.0,47.0,-100.00,East,80,11.0,16.0,68,-99.99,,,-99.99,,2013-05-26 03:33:00,
2013-05-25 22:42:00,58.0,48.0,-100.00,ENE,75,14.0,18.0,70,-99.99,,,-99.99,,2013-05-26 03:42:00,
2013-05-25 22:53:00,58.0,48.0,-100.00,ENE,75,14.0,18.0,70,-99.99,,,-99.99,,2013-05-26 03:53:00,
2013-05-25 23:02:00,58.0,48.0,-100.00,ENE,75,9.0,11.0,70,-99.99,,,-99.99,,2013-05-26 04:02:00,
2013-05-25 23:12:00,58.0,48.0,-100.00,ENE,75,11.0,14.0,70,-99.99,,,-99.99,,2013-05-26 04:12:00,
2013-05-25 23:23:00,58.0,48.0,-100.00,ENE,75,11.0,14.0,70,-99.99,,,-99.99,,2013-05-26 04:23:00,
2013-05-25 23:33:00,58.0,48.0,-100.00,ENE,75,10.0,14.0,69,-99.99,,,-99.99,,2013-05-26 04:33:00,
2013-05-25 23:42:00,58.0,47.0,-100.00,ENE,70,6.0,10.0,68,-99.99,,,-99.99,,2013-05-26 04:42:00,
2013-05-25 23:52:00,58.0,47.0,-100.00,ENE,70,6.0,10.0,68,-99.99,,,-99.99,,2013-05-26 04:52:00,